createdAt,value
2022-12-27T00:08:02.223Z,0.62
2022-12-27T00:20:08.484Z,0.62
2022-12-27T00:32:02.231Z,0.62
2022-12-27T00:44:02.213Z,0.62
2022-12-27T00:56:02.219Z,0.60
2022-12-27T01:08:02.156Z,0.61
2022-12-27T01:20:02.107Z,0.62
2022-12-27T01:32:02.239Z,0.62
2022-12-27T01:44:02.154Z,0.62
2022-12-27T01:56:02.216Z,0.62
2022-12-27T02:08:02.107Z,0.62
2022-12-27T02:20:02.114Z,0.62
2022-12-27T02:32:02.098Z,0.62
2022-12-27T02:44:02.104Z,0.62
2022-12-27T02:56:02.226Z,0.62
2022-12-27T03:08:02.115Z,0.62
2022-12-27T03:20:02.211Z,0.62
2022-12-27T03:32:02.187Z,0.62
2022-12-27T03:44:02.118Z,0.62
2022-12-27T03:56:02.221Z,0.62
2022-12-27T04:08:02.222Z,0.62
2022-12-27T04:20:02.208Z,0.62
2022-12-27T04:32:02.205Z,0.62
2022-12-27T04:44:02.222Z,0.62
2022-12-27T04:56:02.227Z,0.62
2022-12-27T05:08:02.103Z,0.62
2022-12-27T05:20:02.107Z,0.62
2022-12-27T05:32:02.199Z,0.62
2022-12-27T05:44:07.121Z,0.62
2022-12-27T05:56:02.220Z,0.62
2022-12-27T06:08:02.232Z,0.62
2022-12-27T06:20:02.112Z,0.62
2022-12-27T06:32:02.280Z,0.62
2022-12-27T06:44:02.102Z,0.62
2022-12-27T06:56:02.143Z,0.73
2022-12-27T07:08:02.246Z,0.77
2022-12-27T07:20:02.097Z,0.74
2022-12-27T07:32:02.288Z,0.74
2022-12-27T07:44:02.123Z,0.74
2022-12-27T07:56:02.216Z,0.74
2022-12-27T08:08:02.115Z,0.74
2022-12-27T08:20:02.233Z,0.74
2022-12-27T08:32:02.235Z,0.74
2022-12-27T08:44:02.103Z,0.74
2022-12-27T08:56:02.212Z,0.74
2022-12-27T09:08:02.232Z,9.82
2022-12-27T09:20:02.201Z,0.72
2022-12-27T09:32:02.177Z,0.71
2022-12-27T09:44:02.207Z,9.84
2022-12-27T09:56:02.229Z,8.76
2022-12-27T10:08:02.227Z,9.95
2022-12-27T10:20:02.216Z,10.02
2022-12-27T10:32:02.222Z,10.27
2022-12-27T10:44:02.247Z,10.46
2022-12-27T10:56:02.219Z,10.25
2022-12-27T11:08:02.199Z,10.27
2022-12-27T11:20:02.221Z,10.25
2022-12-27T11:32:02.199Z,10.23
2022-12-27T11:44:02.123Z,10.23
2022-12-27T11:56:02.200Z,10.25
2022-12-27T12:08:02.113Z,10.22
2022-12-27T12:20:02.222Z,10.22
2022-12-27T12:32:02.161Z,10.32
2022-12-27T12:44:02.125Z,10.34
2022-12-27T12:56:02.224Z,10.58
2022-12-27T13:08:02.144Z,10.58
2022-12-27T13:20:02.163Z,10.55
2022-12-27T13:32:02.135Z,10.60
2022-12-27T13:44:02.130Z,10.58
2022-12-27T13:56:20.402Z,10.56
2022-12-27T14:08:02.112Z,10.65
2022-12-27T14:20:02.169Z,10.65
2022-12-27T14:32:02.101Z,10.63
2022-12-27T14:44:03.787Z,10.59
2022-12-27T14:56:02.193Z,10.57
2022-12-27T15:08:02.108Z,10.55
2022-12-27T15:20:02.107Z,10.54
2022-12-27T15:32:02.119Z,10.52
2022-12-27T15:44:02.601Z,10.50
2022-12-27T15:56:02.231Z,10.48
2022-12-27T16:08:02.228Z,10.47
2022-12-27T16:20:02.212Z,10.46
2022-12-27T16:32:02.275Z,10.44
2022-12-27T16:44:02.959Z,10.42
2022-12-27T16:56:02.208Z,10.41
2022-12-27T17:08:02.106Z,10.40
2022-12-27T17:20:02.121Z,10.38
2022-12-27T17:32:02.108Z,10.36
2022-12-27T17:44:02.101Z,10.34
2022-12-27T17:56:05.269Z,10.31
2022-12-27T18:08:02.128Z,10.28
2022-12-27T18:20:02.222Z,10.25
2022-12-27T18:32:02.176Z,10.21
2022-12-27T18:44:02.658Z,10.18
2022-12-27T18:56:02.216Z,10.12
2022-12-27T19:08:02.120Z,10.08
2022-12-27T19:20:02.130Z,10.03
2022-12-27T19:32:02.322Z,9.93
2022-12-27T19:44:02.333Z,9.85
2022-12-27T19:56:02.220Z,9.69
2022-12-27T20:08:02.143Z,9.56
2022-12-27T20:20:02.132Z,9.51
2022-12-27T20:32:02.319Z,9.48
2022-12-27T20:44:02.806Z,9.47
2022-12-27T20:56:02.205Z,9.45
2022-12-27T21:08:02.170Z,9.44
2022-12-27T21:20:02.240Z,9.43
2022-12-27T21:32:02.098Z,9.41
2022-12-27T21:44:02.120Z,9.40
2022-12-27T21:56:02.196Z,9.39
2022-12-27T22:08:02.227Z,9.38
2022-12-27T22:20:02.220Z,9.38
2022-12-27T22:32:02.217Z,9.36
2022-12-27T22:44:02.207Z,9.36
2022-12-27T22:56:02.206Z,9.35
2022-12-27T23:08:03.530Z,9.34
2022-12-27T23:20:02.124Z,9.33
2022-12-27T23:32:02.306Z,9.32
2022-12-27T23:44:02.105Z,9.32
2022-12-27T23:56:02.211Z,9.30
